createdAt,value
2019-04-14T00:01:12.983Z,18.07
2019-04-14T00:03:58.751Z,17.67
2019-04-14T00:06:27.275Z,18.07
2019-04-14T00:08:56.511Z,18.00
2019-04-14T00:11:25.827Z,18.37
2019-04-14T00:13:54.572Z,16.67
2019-04-14T00:16:23.155Z,18.10
2019-04-14T00:18:53.364Z,17.97
2019-04-14T00:21:22.559Z,19.10
2019-04-14T00:23:52.483Z,20.50
2019-04-14T00:26:27.378Z,18.33
2019-04-14T00:28:57.771Z,18.50
2019-04-14T00:31:28.412Z,16.50
2019-04-14T00:33:58.807Z,16.67
2019-04-14T00:36:48.037Z,16.87
2019-04-14T00:39:33.625Z,18.87
2019-04-14T00:42:05.353Z,17.17
2019-04-14T00:44:45.239Z,17.53
2019-04-14T00:47:18.375Z,17.80
2019-04-14T00:49:46.815Z,18.90
2019-04-14T00:52:15.343Z,24.97
2019-04-14T00:54:43.788Z,19.07
2019-04-14T00:57:12.244Z,19.80
2019-04-14T00:59:41.847Z,18.33
2019-04-14T01:02:10.327Z,18.83
2019-04-14T01:04:38.792Z,19.33
2019-04-14T01:07:07.245Z,19.23
2019-04-14T01:09:36.886Z,17.77
2019-04-14T01:12:06.071Z,19.30
2019-04-14T01:14:34.576Z,18.03
2019-04-14T01:17:03.138Z,17.00
2019-04-14T01:19:31.647Z,17.97
2019-04-14T01:22:01.034Z,17.77
2019-04-14T01:24:29.567Z,16.27
2019-04-14T01:26:58.079Z,15.07
2019-04-14T01:29:27.606Z,14.47
2019-04-14T01:31:56.185Z,13.97
2019-04-14T01:34:25.892Z,14.57
2019-04-14T01:36:54.464Z,14.83
2019-04-14T01:39:24.212Z,13.90
2019-04-14T01:41:52.764Z,12.93
2019-04-14T01:44:22.108Z,12.60
2019-04-14T01:46:51.975Z,12.90
2019-04-14T01:49:20.549Z,13.40
2019-04-14T01:51:50.749Z,12.93
2019-04-14T01:54:23.816Z,12.63
2019-04-14T01:57:00.309Z,13.00
2019-04-14T01:59:28.764Z,15.10
2019-04-14T02:01:58.734Z,14.50
2019-04-14T02:04:27.256Z,14.40
2019-04-14T02:06:55.720Z,13.37
2019-04-14T02:09:25.120Z,13.03
2019-04-14T02:11:53.743Z,14.37
2019-04-14T02:14:23.351Z,13.43
2019-04-14T02:16:57.109Z,13.63
2019-04-14T02:19:24.087Z,14.20
2019-04-14T02:21:54.024Z,13.93
2019-04-14T02:24:24.142Z,13.98
2019-04-14T02:26:52.747Z,15.13
2019-04-14T02:29:21.291Z,14.77
2019-04-14T02:32:17.287Z,14.10
2019-04-14T02:34:49.582Z,13.23
2019-04-14T02:37:24.406Z,12.70
2019-04-14T02:39:54.387Z,12.10
2019-04-14T02:42:30.940Z,11.33
2019-04-14T02:44:53.307Z,12.40
2019-04-14T02:47:40.375Z,11.27
2019-04-14T02:54:53.639Z,12.40
2019-04-14T02:57:30.493Z,11.90
2019-04-14T03:04:50.558Z,10.70
2019-04-14T03:07:24.129Z,9.73
2019-04-14T03:09:46.615Z,9.87
2019-04-14T03:12:29.126Z,9.00
2019-04-14T03:20:13.706Z,9.97
2019-04-14T03:22:45.891Z,8.43
2019-04-14T03:25:25.772Z,8.90
2019-04-14T03:27:58.973Z,9.37
2019-04-14T03:40:46.313Z,10.80
2019-04-14T03:43:13.146Z,10.97
2019-04-14T03:48:34.390Z,10.17
2019-04-14T03:50:37.918Z,11.80
2019-04-14T03:53:16.348Z,11.03
2019-04-14T03:55:37.041Z,12.43
2019-04-14T03:58:00.589Z,11.67
2019-04-14T04:00:29.255Z,12.43
2019-04-14T04:02:57.747Z,13.20
2019-04-14T04:05:26.216Z,13.77
2019-04-14T04:07:54.636Z,14.33
2019-04-14T04:10:23.109Z,14.23
2019-04-14T04:12:51.567Z,14.47
2019-04-14T04:15:21.316Z,16.60
2019-04-14T04:17:51.731Z,16.73
2019-04-14T04:20:24.623Z,17.50
2019-04-14T04:22:58.682Z,16.83
2019-04-14T04:25:29.043Z,19.77
2019-04-14T04:28:06.002Z,19.33
2019-04-14T04:30:36.344Z,19.97
2019-04-14T04:33:09.297Z,20.60
2019-04-14T04:35:39.391Z,21.33
2019-04-14T04:38:09.626Z,21.93
2019-04-14T04:40:38.098Z,21.77
2019-04-14T04:43:06.539Z,22.30
2019-04-14T04:45:34.992Z,22.53
2019-04-14T04:48:04.457Z,22.70
2019-04-14T04:50:34.580Z,22.00
2019-04-14T04:53:03.120Z,22.83
2019-04-14T04:55:32.775Z,24.67
2019-04-14T04:58:01.475Z,24.43
2019-04-14T05:00:30.952Z,23.30
2019-04-14T05:02:59.483Z,23.53
2019-04-14T05:06:04.614Z,24.03
2019-04-14T05:08:33.177Z,22.30
2019-04-14T05:11:06.165Z,24.37
2019-04-14T05:13:36.407Z,24.17
2019-04-14T05:16:04.840Z,24.53
2019-04-14T05:18:33.575Z,24.20
2019-04-14T05:21:02.132Z,25.03
2019-04-14T05:23:31.991Z,25.07
2019-04-14T05:26:00.752Z,24.53
2019-04-14T05:28:29.211Z,25.07
2019-04-14T05:30:58.867Z,25.57
2019-04-14T05:33:27.509Z,24.23
2019-04-14T05:35:57.325Z,25.10
2019-04-14T05:38:29.074Z,25.00
2019-04-14T05:40:56.244Z,23.67
2019-04-14T05:43:36.954Z,26.27
2019-04-14T05:45:55.060Z,24.40
2019-04-14T05:48:23.485Z,26.23
2019-04-14T05:50:51.960Z,25.20
2019-04-14T05:53:20.441Z,26.47
2019-04-14T05:55:48.904Z,26.10
2019-04-14T05:58:18.489Z,24.00
2019-04-14T06:00:47.065Z,26.10
2019-04-14T06:03:16.658Z,24.77
2019-04-14T06:05:45.276Z,22.93
2019-04-14T06:08:13.732Z,24.93
2019-04-14T06:10:42.184Z,23.97
2019-04-14T06:13:11.888Z,24.20
2019-04-14T06:15:40.660Z,24.27
2019-04-14T06:18:09.692Z,24.07
2019-04-14T06:20:38.136Z,22.93
2019-04-14T06:23:06.584Z,25.13
2019-04-14T06:25:36.468Z,24.87
2019-04-14T06:28:05.051Z,23.43
2019-04-14T06:30:37.958Z,22.77
2019-04-14T06:33:08.088Z,23.73
2019-04-14T06:35:54.744Z,24.73
2019-04-14T06:38:25.008Z,25.07
2019-04-14T06:40:55.163Z,23.07
2019-04-14T06:43:23.624Z,24.07
2019-04-14T06:45:52.092Z,23.60
2019-04-14T06:48:20.543Z,23.57
2019-04-14T06:50:48.991Z,24.17
2019-04-14T06:53:17.440Z,22.53
2019-04-14T06:55:45.965Z,22.40
2019-04-14T06:58:14.435Z,23.30
2019-04-14T07:00:42.928Z,22.27
2019-04-14T07:03:11.424Z,23.37
2019-04-14T07:05:39.867Z,23.70
2019-04-14T07:08:08.368Z,23.23
2019-04-14T07:10:36.789Z,24.60
2019-04-14T07:13:05.212Z,23.77
2019-04-14T07:15:33.710Z,23.87
2019-04-14T07:18:02.315Z,24.73
2019-04-14T07:20:30.749Z,27.53
2019-04-14T07:22:59.223Z,24.33
2019-04-14T07:25:27.657Z,21.53
2019-04-14T07:27:56.113Z,21.10
2019-04-14T07:30:26.200Z,21.73
2019-04-14T07:32:56.284Z,23.40
2019-04-14T07:35:26.381Z,21.83
2019-04-14T07:37:56.460Z,19.47
2019-04-14T07:40:44.140Z,20.17
2019-04-14T07:43:22.944Z,20.30
2019-04-14T07:45:53.064Z,21.63
2019-04-14T07:48:23.160Z,21.50
2019-04-14T07:50:53.263Z,20.93
2019-04-14T07:53:39.707Z,21.43
2019-04-14T07:56:15.596Z,23.13
2019-04-14T07:58:54.511Z,22.33
2019-04-14T08:01:27.745Z,22.53
2019-04-14T08:03:57.816Z,22.13
2019-04-14T08:06:26.576Z,23.87
2019-04-14T08:08:55.027Z,22.33
2019-04-14T08:11:23.564Z,22.87
2019-04-14T08:13:51.984Z,21.93
2019-04-14T08:16:20.459Z,23.73
2019-04-14T08:18:48.903Z,19.97
2019-04-14T08:21:17.325Z,19.17
2019-04-14T08:23:45.798Z,21.50
2019-04-14T08:26:14.315Z,19.57
2019-04-14T08:28:42.769Z,19.33
2019-04-14T08:31:11.216Z,22.10
2019-04-14T08:33:39.732Z,19.63
2019-04-14T08:36:08.200Z,18.63
2019-04-14T08:38:36.652Z,20.80
2019-04-14T08:41:05.127Z,20.23
2019-04-14T08:43:44.389Z,20.80
2019-04-14T08:46:30.709Z,21.50
2019-04-14T08:49:16.841Z,21.10
2019-04-14T08:51:55.840Z,19.53
2019-04-14T08:54:34.624Z,21.57
2019-04-14T08:57:04.710Z,20.47
2019-04-14T08:59:37.752Z,17.80
2019-04-14T09:02:16.351Z,18.90
2019-04-14T09:04:52.399Z,20.77
2019-04-14T09:07:25.401Z,20.53
2019-04-14T09:10:01.571Z,19.63
2019-04-14T09:12:34.440Z,19.90
2019-04-14T09:15:02.888Z,20.47
2019-04-14T09:17:31.335Z,19.67
2019-04-14T09:19:59.795Z,20.50
2019-04-14T09:22:28.244Z,19.97
2019-04-14T09:24:56.708Z,17.87
2019-04-14T09:27:25.269Z,19.03
2019-04-14T09:29:53.816Z,18.73
2019-04-14T09:32:22.631Z,19.03
2019-04-14T09:34:51.176Z,18.97
2019-04-14T09:37:19.658Z,20.40
2019-04-14T09:39:48.112Z,21.20
2019-04-14T09:42:16.609Z,19.70
2019-04-14T09:44:45.050Z,20.73
2019-04-14T09:47:32.840Z,21.30
2019-04-14T09:50:01.296Z,20.27
2019-04-14T09:52:29.754Z,21.10
2019-04-14T09:54:58.184Z,21.80
2019-04-14T09:57:26.649Z,20.67
2019-04-14T09:59:55.107Z,19.80
2019-04-14T10:02:23.803Z,19.37
2019-04-14T10:04:52.277Z,20.07
2019-04-14T10:07:20.800Z,20.73
2019-04-14T10:09:49.351Z,19.53
2019-04-14T10:12:17.935Z,21.40
2019-04-14T10:14:46.389Z,21.63
2019-04-14T10:17:14.814Z,20.73
2019-04-14T10:19:43.281Z,20.30
2019-04-14T10:22:11.712Z,20.30
2019-04-14T10:24:40.163Z,21.37
2019-04-14T10:27:08.648Z,20.63
2019-04-14T10:29:37.096Z,20.43
2019-04-14T10:32:05.543Z,20.57
2019-04-14T10:34:34.001Z,19.73
2019-04-14T10:37:02.479Z,19.93
2019-04-14T10:39:30.913Z,18.97
2019-04-14T10:41:59.348Z,19.13
2019-04-14T10:44:27.845Z,18.30
2019-04-14T10:46:56.359Z,16.73
2019-04-14T10:49:24.955Z,18.07
2019-04-14T10:51:53.947Z,16.00
2019-04-14T10:54:22.408Z,17.23
2019-04-14T10:56:50.904Z,15.67
2019-04-14T10:59:19.375Z,28.53
2019-04-14T11:01:47.848Z,16.53
2019-04-14T11:04:16.298Z,14.33
2019-04-14T11:06:52.252Z,14.67
2019-04-14T11:09:20.711Z,15.17
2019-04-14T11:11:49.243Z,13.53
2019-04-14T11:14:17.673Z,15.00
2019-04-14T11:16:46.131Z,13.53
2019-04-14T11:19:14.607Z,13.63
2019-04-14T11:21:43.202Z,14.10
2019-04-14T11:24:11.678Z,13.40
2019-04-14T11:26:40.138Z,11.83
2019-04-14T11:29:08.611Z,13.13
2019-04-14T11:31:47.437Z,13.30
2019-04-14T11:34:17.558Z,12.73
2019-04-14T11:36:56.936Z,12.47
2019-04-14T11:39:25.496Z,12.77
2019-04-14T11:41:54.068Z,12.33
2019-04-14T11:44:22.596Z,12.97
2019-04-14T11:46:51.052Z,12.27
2019-04-14T11:49:19.520Z,12.33
2019-04-14T11:51:55.121Z,12.77
2019-04-14T11:54:18.141Z,12.53
2019-04-14T11:56:46.781Z,12.67
2019-04-14T11:59:15.407Z,12.57
2019-04-14T12:01:45.531Z,11.73
2019-04-14T12:04:15.664Z,11.47
2019-04-14T12:06:45.781Z,12.53
2019-04-14T12:09:18.273Z,12.87
2019-04-14T12:11:46.736Z,11.80
2019-04-14T12:14:15.164Z,13.50
2019-04-14T12:16:43.649Z,12.37
2019-04-14T12:19:12.099Z,11.07
2019-04-14T12:21:40.559Z,12.47
2019-04-14T12:24:09.028Z,11.63
2019-04-14T12:26:37.503Z,12.23
2019-04-14T12:29:06.409Z,12.17
2019-04-14T12:31:35.290Z,12.53
2019-04-14T12:34:04.067Z,11.40
2019-04-14T12:36:32.549Z,12.27
2019-04-14T12:39:01.022Z,11.07
2019-04-14T12:41:37.697Z,12.03
2019-04-14T12:44:10.523Z,10.63
2019-04-14T12:46:46.566Z,11.43
2019-04-14T12:49:19.372Z,11.53
2019-04-14T12:52:21.298Z,11.50
2019-04-14T12:54:47.099Z,11.23
2019-04-14T12:57:17.227Z,10.83
2019-04-14T12:59:45.680Z,11.70
2019-04-14T13:02:15.766Z,11.90
2019-04-14T13:04:44.235Z,11.13
2019-04-14T13:07:12.691Z,11.97
2019-04-14T13:09:41.152Z,10.80
2019-04-14T13:12:10.479Z,10.83
2019-04-14T13:14:39.150Z,11.00
2019-04-14T13:17:07.700Z,10.53
2019-04-14T13:19:36.151Z,10.17
2019-04-14T13:22:04.904Z,10.83
2019-04-14T13:24:33.415Z,10.80
2019-04-14T13:27:01.851Z,9.83
2019-04-14T13:29:30.338Z,10.53
2019-04-14T13:31:58.779Z,10.17
2019-04-14T13:34:27.243Z,10.60
2019-04-14T13:36:55.673Z,12.70
2019-04-14T13:39:24.302Z,11.40
2019-04-14T13:41:52.793Z,11.20
2019-04-14T13:44:21.264Z,10.63
2019-04-14T13:46:49.697Z,11.20
2019-04-14T13:49:18.148Z,11.30
2019-04-14T13:51:46.611Z,11.23
2019-04-14T13:54:15.095Z,11.03
2019-04-14T13:56:43.611Z,10.90
2019-04-14T13:59:12.092Z,11.37
2019-04-14T14:01:40.516Z,10.83
2019-04-14T14:04:08.991Z,11.47
2019-04-14T14:06:37.492Z,11.57
2019-04-14T14:09:09.421Z,11.27
2019-04-14T14:11:57.567Z,11.77
2019-04-14T14:14:27.674Z,12.77
2019-04-14T14:17:00.688Z,11.40
2019-04-14T14:19:33.243Z,11.10
2019-04-14T14:22:06.256Z,11.17
2019-04-14T14:24:42.075Z,11.07
2019-04-14T14:27:11.120Z,11.10
2019-04-14T14:29:39.573Z,10.97
2019-04-14T14:32:09.650Z,11.20
2019-04-14T14:34:38.107Z,9.53
2019-04-14T14:37:06.576Z,10.80
2019-04-14T14:39:35.111Z,10.80
2019-04-14T14:42:03.537Z,9.57
2019-04-14T14:44:36.625Z,10.37
2019-04-14T14:47:06.768Z,8.80
2019-04-14T14:49:48.669Z,9.30
2019-04-14T14:52:18.745Z,8.43
2019-04-14T14:54:47.208Z,8.53
2019-04-14T14:57:15.638Z,7.70
2019-04-14T14:59:44.088Z,7.33
2019-04-14T15:02:12.527Z,7.37
2019-04-14T15:04:41.068Z,7.40
2019-04-14T15:07:09.500Z,7.13
2019-04-14T15:09:38.023Z,7.30
2019-04-14T15:12:06.476Z,7.50
2019-04-14T15:14:34.954Z,7.40
2019-04-14T15:17:03.423Z,7.03
2019-04-14T15:19:31.917Z,6.70
2019-04-14T15:22:00.364Z,6.27
2019-04-14T15:24:28.831Z,6.73
2019-04-14T15:26:57.383Z,7.10
2019-04-14T15:29:25.855Z,7.07
2019-04-14T15:31:54.563Z,7.03
2019-04-14T15:34:22.980Z,6.17
2019-04-14T15:36:51.440Z,6.77
2019-04-14T15:39:19.883Z,7.00
2019-04-14T15:41:48.400Z,6.27
2019-04-14T15:44:16.903Z,5.87
2019-04-14T15:46:45.368Z,6.27
2019-04-14T15:49:13.892Z,6.13
2019-04-14T15:51:42.539Z,6.33
2019-04-14T15:54:11.022Z,6.83
2019-04-14T15:56:47.101Z,5.97
2019-04-14T15:59:20.117Z,6.60
2019-04-14T16:01:53.140Z,6.23
2019-04-14T16:04:26.164Z,7.63
2019-04-14T16:07:10.915Z,6.63
2019-04-14T16:09:43.884Z,7.80
2019-04-14T16:12:30.256Z,6.20
2019-04-14T16:15:06.103Z,7.27
2019-04-14T16:17:36.183Z,7.47
2019-04-14T16:20:10.217Z,12.50
2019-04-14T16:22:39.087Z,8.93
2019-04-14T16:25:07.787Z,6.67
2019-04-14T16:27:40.682Z,6.93
2019-04-14T16:30:26.042Z,7.00
2019-04-14T16:33:14.302Z,6.73
2019-04-14T16:35:44.097Z,7.43
2019-04-14T16:38:12.597Z,6.73
2019-04-14T16:40:41.056Z,6.90
2019-04-14T16:43:09.539Z,6.77
2019-04-14T16:45:38.013Z,5.77
2019-04-14T16:48:06.525Z,6.23
2019-04-14T16:50:34.987Z,6.77
2019-04-14T16:53:05.067Z,6.47
2019-04-14T16:55:40.911Z,7.10
2019-04-14T16:58:16.983Z,7.40
2019-04-14T17:00:47.137Z,7.07
2019-04-14T17:03:15.666Z,6.63
2019-04-14T17:05:44.155Z,6.47
2019-04-14T17:08:12.708Z,7.80
2019-04-14T17:10:41.146Z,7.60
2019-04-14T17:13:09.669Z,6.67
2019-04-14T17:15:54.762Z,6.37
2019-04-14T17:18:30.527Z,7.37
2019-04-14T17:21:03.620Z,7.23
2019-04-14T17:23:36.674Z,6.80
2019-04-14T17:26:07.138Z,6.60
2019-04-14T17:28:40.104Z,6.93
2019-04-14T17:31:16.313Z,6.50
2019-04-14T17:33:58.509Z,7.07
2019-04-14T17:36:28.582Z,7.10
2019-04-14T17:38:58.677Z,7.37
2019-04-14T17:41:31.721Z,6.93
2019-04-14T17:44:04.761Z,7.00
2019-04-14T17:46:50.864Z,7.40
2019-04-14T17:49:23.648Z,7.37
2019-04-14T17:52:09.723Z,6.90
2019-04-14T17:54:51.824Z,8.03
2019-04-14T17:57:38.200Z,7.17
2019-04-14T18:00:20.473Z,8.13
2019-04-14T18:03:08.515Z,7.57
2019-04-14T18:05:41.332Z,7.73
2019-04-14T18:08:29.596Z,7.40
2019-04-14T18:11:08.959Z,7.80
2019-04-14T18:13:44.848Z,8.13
2019-04-14T18:16:17.991Z,8.23
2019-04-14T18:18:50.565Z,8.30
2019-04-14T18:21:19.102Z,7.97
2019-04-14T18:23:47.571Z,7.73
2019-04-14T18:26:16.054Z,7.53
2019-04-14T18:28:55.129Z,8.00
2019-04-14T18:31:33.965Z,7.37
2019-04-14T18:34:06.751Z,7.37
2019-04-14T18:36:39.724Z,7.90
2019-04-14T18:39:26.836Z,7.80
2019-04-14T18:42:13.138Z,7.97
2019-04-14T18:44:51.860Z,7.97
2019-04-14T18:47:30.685Z,8.13
2019-04-14T18:50:03.444Z,7.93
2019-04-14T18:52:33.560Z,7.90
2019-04-14T18:55:03.645Z,8.47
2019-04-14T18:57:45.586Z,8.03
2019-04-14T19:00:21.771Z,9.20
2019-04-14T19:02:50.240Z,8.80
2019-04-14T19:05:18.684Z,8.90
2019-04-14T19:07:47.128Z,9.00
2019-04-14T19:10:15.552Z,8.70
2019-04-14T19:12:48.640Z,9.00
2019-04-14T19:15:33.821Z,8.60
2019-04-14T19:18:06.463Z,8.87
2019-04-14T19:20:34.976Z,9.47
2019-04-14T19:23:03.416Z,8.53
2019-04-14T19:25:31.840Z,9.73
2019-04-14T19:28:00.290Z,8.57
2019-04-14T19:30:28.766Z,9.00
2019-04-14T19:32:57.239Z,8.23
2019-04-14T19:35:26.960Z,8.10
2019-04-14T19:37:55.627Z,8.60
2019-04-14T19:40:24.105Z,9.23
2019-04-14T19:42:52.561Z,8.73
2019-04-14T19:45:21.040Z,8.40
2019-04-14T19:47:49.540Z,8.07
2019-04-14T19:50:17.993Z,8.13
2019-04-14T19:52:46.425Z,7.97
2019-04-14T19:55:20.660Z,8.07
2019-04-14T19:57:45.071Z,8.00
2019-04-14T20:00:13.766Z,8.57
2019-04-14T20:02:42.304Z,8.37
2019-04-14T20:05:31.631Z,8.37
2019-04-14T20:08:00.104Z,8.60
2019-04-14T20:10:28.525Z,8.17
2019-04-14T20:12:56.992Z,8.37
2019-04-14T20:15:27.071Z,7.80
2019-04-14T20:18:09.377Z,7.40
2019-04-14T20:20:39.507Z,8.30
2019-04-14T20:23:09.631Z,7.77
2019-04-14T20:26:01.371Z,9.13
2019-04-14T20:28:31.472Z,8.05
2019-04-14T20:31:04.614Z,8.57
2019-04-14T20:33:33.052Z,8.30
2019-04-14T20:36:01.508Z,8.90
2019-04-14T20:38:30.004Z,8.70
2019-04-14T20:40:58.484Z,8.40
2019-04-14T20:43:26.909Z,8.50
2019-04-14T20:45:55.401Z,8.73
2019-04-14T20:48:23.909Z,8.50
2019-04-14T20:50:52.392Z,9.00
2019-04-14T20:53:20.886Z,8.60
2019-04-14T20:55:49.329Z,9.07
2019-04-14T20:58:17.767Z,8.87
2019-04-14T21:00:46.236Z,9.00
2019-04-14T21:03:16.343Z,7.97
2019-04-14T21:06:08.743Z,9.20
2019-04-14T21:08:57.202Z,8.53
2019-04-14T21:11:30.257Z,9.43
2019-04-14T21:14:06.338Z,9.10
2019-04-14T21:16:42.167Z,8.73
2019-04-14T21:19:12.287Z,9.53
2019-04-14T21:21:42.357Z,9.03
2019-04-14T21:24:28.996Z,8.97
2019-04-14T21:27:11.311Z,9.13
2019-04-14T21:29:41.380Z,8.87
2019-04-14T21:32:17.520Z,9.10
2019-04-14T21:34:47.609Z,8.67
2019-04-14T21:37:20.735Z,9.00
2019-04-14T21:39:53.544Z,8.43
2019-04-14T21:42:22.016Z,7.90
2019-04-14T21:44:50.483Z,8.67
2019-04-14T21:47:18.908Z,9.53
2019-04-14T21:49:47.360Z,8.40
2019-04-14T21:52:29.676Z,8.93
2019-04-14T21:54:58.151Z,8.33
2019-04-14T21:57:44.732Z,8.53
2019-04-14T22:00:31.857Z,9.43
2019-04-14T22:03:18.568Z,8.87
2019-04-14T22:05:48.684Z,9.07
2019-04-14T22:08:18.767Z,8.20
2019-04-14T22:10:48.880Z,8.73
2019-04-14T22:13:17.307Z,7.67
2019-04-14T22:15:45.775Z,8.90
2019-04-14T22:18:14.624Z,8.53
2019-04-14T22:20:43.063Z,8.43
2019-04-14T22:23:13.091Z,7.90
2019-04-14T22:25:41.532Z,8.13
2019-04-14T22:28:10.048Z,6.93
2019-04-14T22:30:38.577Z,6.90
2019-04-14T22:33:07.139Z,7.67
2019-04-14T22:35:35.588Z,6.60
2019-04-14T22:38:04.127Z,7.13
2019-04-14T22:40:32.567Z,6.83
2019-04-14T22:43:01.007Z,6.90
2019-04-14T22:45:29.950Z,7.30
2019-04-14T22:47:58.372Z,7.07
2019-04-14T22:50:26.812Z,6.73
2019-04-14T22:52:55.633Z,7.17
2019-04-14T22:55:24.052Z,6.97
2019-04-14T22:57:52.509Z,7.43
2019-04-14T23:00:28.297Z,7.20
2019-04-14T23:05:51.408Z,7.07
2019-04-14T23:08:49.793Z,6.13
2019-04-14T23:11:31.799Z,6.77
2019-04-14T23:14:07.376Z,7.03
2019-04-14T23:16:37.460Z,6.97
2019-04-14T23:19:13.656Z,22.50
2019-04-14T23:21:46.509Z,6.50
2019-04-14T23:24:16.613Z,7.50
2019-04-14T23:26:52.378Z,7.50
2019-04-14T23:29:15.328Z,7.23
2019-04-14T23:31:43.781Z,7.67
2019-04-14T23:34:12.232Z,7.73
2019-04-14T23:36:40.692Z,8.40
2019-04-14T23:39:10.838Z,6.97
2019-04-14T23:41:39.320Z,6.70
2019-04-14T23:44:07.749Z,7.17
2019-04-14T23:46:48.745Z,7.67
2019-04-14T23:49:17.168Z,8.17
2019-04-14T23:51:45.622Z,6.87
2019-04-14T23:54:14.108Z,7.30
2019-04-14T23:56:42.589Z,7.67
2019-04-14T23:59:11.034Z,7.53
